Time;durP1;ratioP1;P1;durP2;ratioP2;P2;SDS_P1;SDS_P2;PMS_P1;PMS_P2;Temp;Humidity;BMP_temperature;BMP_pressure;BME280_temperature;BME280_humidity;BME280_pressure;Samples;Min_cycle;Max_cycle;Signal;HPM_P1;HPM_P2
2023/03/21 05:21:09;;;;;;;20.83;8.65;;;;;;;7.84;88.54;100898.16;5179272;23;20062;-91
2023/03/21 05:23:57;;;;;;;24.02;8.82;;;;;;;7.85;88.85;100882.97;4932079;29;20062;-93
2023/03/21 05:26:35;;;;;;;22.77;9.40;;;;;;;7.89;88.77;100892.41;4954300;28;20063;-94
2023/03/21 05:29:31;;;;;;;21.67;9.52;;;;;;;8.01;88.35;100889.47;4942258;29;20075;-93
2023/03/21 05:32:53;;;;;;;24.42;9.25;;;;;;;8.23;88.28;100935.72;4920219;29;20464;-95
2023/03/21 05:35:34;;;;;;;25.35;9.73;;;;;;;8.25;88.04;100931.94;4889113;28;20136;-93
2023/03/21 05:38:47;;;;;;;25.95;10.18;;;;;;;7.99;88.39;100893.28;4940169;28;20118;-94
2023/03/21 05:42:01;;;;;;;23.95;9.80;;;;;;;7.99;88.40;100869.19;4883846;29;20053;-92
2023/03/21 05:45:00;;;;;;;25.65;10.20;;;;;;;8.16;88.45;100871.16;4838318;29;20070;-94
2023/03/21 05:48:35;;;;;;;34.47;10.45;;;;;;;7.85;89.47;100866.91;4818324;29;20050;-93
2023/03/21 05:54:44;;;;;;;20.67;11.00;;;;;;;8.17;90.55;100937.16;4842208;29;20099;-94
2023/03/21 05:57:28;;;;;;;23.13;11.38;;;;;;;8.25;90.09;100942.63;4941597;29;20507;-94
2023/03/21 06:00:20;;;;;;;24.83;11.23;;;;;;;8.14;89.99;100950.78;4896808;29;20439;-94
2023/03/21 06:02:56;;;;;;;32.58;14.52;;;;;;;8.00;90.89;100953.88;4917614;29;20070;-91
2023/03/21 06:05:44;;;;;;;27.00;11.30;;;;;;;8.05;91.02;100956.97;4939108;29;20069;-94
2023/03/21 06:08:14;;;;;;;21.67;11.73;;;;;;;8.15;89.82;100933.75;4940567;29;20032;-94
2023/03/21 06:10:43;;;;;;;27.50;11.77;;;;;;;8.18;90.04;100952.22;4892866;29;20043;-96
2023/03/21 06:13:17;;;;;;;27.88;12.23;;;;;;;8.01;90.21;100931.47;4949451;29;20050;-95
2023/03/21 06:15:58;;;;;;;29.67;12.90;;;;;;;8.36;89.77;100956.91;4951651;29;20096;-95
2023/03/21 06:18:37;;;;;;;36.75;13.77;;;;;;;8.29;90.29;100961.97;4947161;29;20058;-92
2023/03/21 06:21:20;;;;;;;26.73;12.65;;;;;;;8.18;90.00;100944.19;4952083;28;20044;-93
2023/03/21 06:24:17;;;;;;;26.20;12.63;;;;;;;8.31;89.75;100943.06;4958239;28;20055;-94
2023/03/21 06:27:25;;;;;;;29.77;13.27;;;;;;;8.29;89.53;100953.06;4948567;28;20037;-94
2023/03/21 06:29:56;;;;;;;28.92;11.95;;;;;;;8.35;88.78;100933.78;4939864;29;20073;-93
2023/03/21 06:32:25;;;;;;;27.45;12.57;;;;;;;8.49;88.55;100946.78;4945057;29;20047;-95
2023/03/21 06:35:01;;;;;;;29.30;13.27;;;;;;;8.46;89.27;100947.06;4928167;29;20103;-94
2023/03/21 06:37:43;;;;;;;39.08;14.93;;;;;;;8.62;89.24;100963.44;4919950;29;20127;-95
2023/03/21 06:40:25;;;;;;;26.70;13.32;;;;;;;8.52;88.23;100926.88;4944087;29;20027;-94
2023/03/21 06:43:02;;;;;;;27.88;13.02;;;;;;;8.71;87.15;100924.22;4935368;29;20099;-95
2023/03/21 06:45:45;;;;;;;25.20;13.10;;;;;;;9.00;86.76;100944.78;4938460;29;20051;-93
2023/03/21 06:48:28;;;;;;;27.48;12.05;;;;;;;9.09;86.02;100960.84;4942865;29;20047;-93
2023/03/21 06:51:03;;;;;;;23.08;12.10;;;;;;;8.68;86.18;100918.28;4942469;29;20119;-92
2023/03/21 06:53:34;;;;;;;27.45;12.70;;;;;;;9.02;86.25;100975.81;4952681;29;20103;-95
2023/03/21 06:56:16;;;;;;;26.83;12.13;;;;;;;8.84;86.41;100926.59;4936158;28;20051;-96
2023/03/21 06:59:16;;;;;;;24.30;12.35;;;;;;;8.90;85.74;100939.44;4948813;29;20166;-94
2023/03/21 07:01:44;;;;;;;26.60;11.52;;;;;;;8.86;85.13;100916.56;4933148;28;20051;-93
2023/03/21 07:09:56;;;;;;;26.50;10.90;;;;;;;8.96;85.70;100960.31;5113464;23;20059;-95
2023/03/21 07:12:42;;;;;;;23.90;11.60;;;;;;;9.05;85.32;100951.41;4936427;29;20047;-93
2023/03/21 07:25:20;;;;;;;28.85;11.30;;;;;;;8.68;87.08;100918.28;5072743;23;20130;-93
2023/03/21 07:27:50;;;;;;;26.13;9.52;;;;;;;8.62;86.56;100935.78;4918688;29;20068;-91
2023/03/21 07:48:11;;;;;;;29.40;12.43;;;;;;;9.20;87.94;100926.78;4196707;26;20490;-93
2023/03/21 07:51:08;;;;;;;24.52;11.80;;;;;;;9.21;87.53;100934.72;4950040;28;20248;-93
2023/03/21 08:03:49;;;;;;;30.48;13.20;;;;;;;8.48;91.12;100934.38;4957727;28;19926;-90
2023/03/21 08:06:22;;;;;;;30.63;14.00;;;;;;;8.43;90.42;100904.50;4941394;29;20372;-92
2023/03/21 08:08:49;;;;;;;33.60;14.80;;;;;;;8.55;90.48;100903.34;4948864;28;20123;-92
2023/03/21 08:11:20;;;;;;;30.95;14.13;;;;;;;8.49;90.16;100903.06;4940738;29;20043;-88
2023/03/21 08:14:05;;;;;;;28.90;14.77;;;;;;;8.33;91.90;100887.50;4955174;29;20023;-90
2023/03/21 08:25:58;;;;;;;29.98;14.68;;;;;;;8.75;90.94;100887.25;5194604;23;20088;-94
2023/03/21 08:29:17;;;;;;;34.33;14.90;;;;;;;8.69;91.11;100911.97;4926458;29;20142;-92
2023/03/21 08:32:07;;;;;;;28.13;14.43;;;;;;;9.03;90.36;100928.41;4922729;29;20055;-93
2023/03/21 08:34:41;;;;;;;31.98;14.80;;;;;;;8.88;91.55;100911.91;4921774;29;20055;-94
2023/03/21 08:46:02;;;;;;;26.75;14.43;;;;;;;9.13;88.83;100896.19;5230063;23;20066;-93
2023/03/21 08:48:54;;;;;;;30.48;14.60;;;;;;;9.29;88.48;100921.44;4955826;29;20057;-91
2023/03/21 08:51:30;;;;;;;35.83;15.20;;;;;;;9.44;87.40;100910.22;4927056;29;20134;-93
2023/03/21 08:54:21;;;;;;;29.42;14.63;;;;;;;9.67;86.94;100933.00;4957081;29;20062;-89
2023/03/21 08:56:48;;;;;;;30.63;12.82;;;;;;;9.54;85.95;100920.91;4962055;28;20038;-88
2023/03/21 08:59:34;;;;;;;31.92;12.88;;;;;;;9.65;85.54;100942.19;4932776;28;20047;-94
2023/03/21 09:02:00;;;;;;;36.28;12.85;;;;;;;9.32;85.76;100917.59;4938233;28;20063;-90
2023/03/21 09:04:29;;;;;;;32.78;13.20;;;;;;;9.33;86.98;100935.38;4925891;29;20141;-89
2023/03/21 09:07:16;;;;;;;30.33;14.15;;;;;;;9.34;87.14;100934.41;4959643;29;20039;-92
2023/03/21 09:09:46;;;;;;;35.03;13.43;;;;;;;9.28;87.56;100930.44;4926540;29;20042;-94
2023/03/21 09:12:15;;;;;;;28.85;13.38;;;;;;;9.20;86.51;100891.91;4909622;29;20047;-93
2023/03/21 09:14:48;;;;;;;23.83;13.02;;;;;;;9.31;87.15;100910.53;4934411;29;20511;-89
2023/03/21 09:23:26;;;;;;;27.00;13.40;;;;;;;8.95;88.61;100920.25;5033589;23;20049;-94
2023/03/21 09:29:22;;;;;;;28.63;13.25;;;;;;;8.71;90.01;100939.44;4580388;26;20055;-93
2023/03/21 09:32:03;;;;;;;25.17;13.63;;;;;;;8.66;89.02;100900.53;4917792;29;20047;-92
2023/03/21 09:34:47;;;;;;;32.88;13.80;;;;;;;8.75;89.44;100906.00;4940897;29;20207;-92
2023/03/21 09:37:14;;;;;;;28.92;12.77;;;;;;;9.01;88.89;100946.47;4906693;29;20084;-92
2023/03/21 09:40:12;;;;;;;33.25;13.55;;;;;;;8.59;89.53;100907.44;4928258;29;20074;-92
2023/03/21 09:43:26;;;;;;;28.77;13.48;;;;;;;8.80;90.02;100946.63;4937952;29;20068;-95
2023/03/21 09:46:32;;;;;;;34.17;13.85;;;;;;;8.60;90.07;100919.00;4940860;29;20122;-92
2023/03/21 09:49:35;;;;;;;32.67;14.93;;;;;;;8.91;89.37;100914.31;4932081;29;20051;-94
2023/03/21 09:52:54;;;;;;;34.95;14.80;;;;;;;8.93;88.41;100901.59;4938476;29;20576;-92
2023/03/21 09:56:05;;;;;;;30.45;14.75;;;;;;;9.29;87.27;100912.50;4947490;29;20088;-92
2023/03/21 09:59:00;;;;;;;30.23;13.57;;;;;;;9.17;86.42;100908.31;4942139;28;20131;-93
2023/03/21 10:01:32;;;;;;;32.30;14.35;;;;;;;9.33;86.65;100940.75;4901220;29;20137;-91
2023/03/21 10:04:04;;;;;;;35.88;15.85;;;;;;;9.43;86.71;100938.03;4894114;29;20048;-94
2023/03/21 10:06:30;;;;;;;33.28;14.50;;;;;;;9.39;86.18;100921.38;4939516;29;20516;-92
2023/03/21 10:09:24;;;;;;;29.60;15.23;;;;;;;9.09;86.06;100912.56;5008165;23;20522;-92
2023/03/21 10:12:15;;;;;;;31.80;14.55;;;;;;;9.27;86.06;100941.31;4935226;28;20059;-89
2023/03/21 10:15:04;;;;;;;35.10;14.85;;;;;;;9.06;86.20;100915.56;4929955;29;20043;-89
2023/03/21 10:17:41;;;;;;;36.28;16.13;;;;;;;9.33;86.07;100918.44;4933374;28;20040;-91
2023/03/21 10:20:35;;;;;;;40.55;16.05;;;;;;;9.60;84.89;100944.44;4955348;23;20119;-89
2023/03/21 10:23:13;;;;;;;25.77;12.57;;;;;;;9.51;84.76;100936.31;4925033;29;20500;-90
2023/03/21 10:25:44;;;;;;;28.67;14.95;;;;;;;9.68;84.65;100944.56;4925159;29;20043;-89
2023/03/21 10:28:45;;;;;;;41.25;16.17;;;;;;;9.70;83.23;100905.84;4939929;29;20071;-92
2023/03/21 10:31:28;;;;;;;33.67;14.45;;;;;;;9.68;84.01;100941.88;4946711;29;20039;-93
2023/03/21 10:33:58;;;;;;;28.98;12.35;;;;;;;9.45;84.73;100931.50;4925807;29;20039;-91
2023/03/21 10:36:29;;;;;;;34.45;13.75;;;;;;;9.23;85.22;100910.44;4915564;29;20126;-93
2023/03/21 10:39:14;;;;;;;40.92;17.52;;;;;;;9.19;86.99;100928.63;4930037;29;20436;-90
2023/03/21 10:41:41;;;;;;;40.97;16.70;;;;;;;9.52;86.14;100929.09;4920781;29;20062;-93
2023/03/21 10:44:15;;;;;;;39.70;15.40;;;;;;;9.68;84.70;100947.25;4929118;29;20043;-92
2023/03/21 10:46:55;;;;;;;36.05;14.20;;;;;;;9.62;84.73;100955.88;4899304;29;20052;-91
2023/03/21 10:49:21;;;;;;;42.58;15.23;;;;;;;9.77;84.24;100942.84;4920171;29;20039;-88
2023/03/21 10:51:53;;;;;;;37.47;14.45;;;;;;;9.78;83.42;100905.09;4916696;29;20044;-88
2023/03/21 10:54:20;;;;;;;34.00;14.20;;;;;;;9.78;83.29;100904.25;4911535;29;20477;-87
2023/03/21 10:57:06;;;;;;;38.55;14.73;;;;;;;10.25;81.77;100934.47;4915496;29;20051;-87
2023/03/21 10:59:43;;;;;;;25.00;13.32;;;;;;;10.38;80.60;100928.78;4920686;29;20112;-84
2023/03/21 11:02:38;;;;;;;32.85;14.63;;;;;;;10.71;79.95;100923.69;4898942;29;20108;-88
2023/03/21 11:05:15;;;;;;;35.77;15.07;;;;;;;10.78;78.54;100901.38;4951609;29;20055;-86
2023/03/21 11:07:41;;;;;;;29.23;12.98;;;;;;;11.06;77.21;100938.94;4892178;29;20077;-89
2023/03/21 11:10:16;;;;;;;31.05;13.00;;;;;;;11.25;76.94;100928.97;4922478;29;20039;-86
2023/03/21 11:12:46;;;;;;;22.75;12.77;;;;;;;10.95;75.69;100902.34;4898994;29;20367;-90
2023/03/21 11:15:31;;;;;;;25.52;12.80;;;;;;;10.89;75.80;100908.38;4902665;29;20131;-88
2023/03/21 11:18:13;;;;;;;30.85;13.07;;;;;;;10.78;76.98;100930.97;4922331;29;20054;-88
2023/03/21 11:21:01;;;;;;;26.98;13.43;;;;;;;10.50;78.88;100940.97;4909517;29;20055;-87
2023/03/21 11:23:34;;;;;;;30.33;13.27;;;;;;;10.45;77.97;100892.22;4934040;29;20048;-91
2023/03/21 11:26:34;;;;;;;28.75;13.75;;;;;;;10.46;78.28;100891.22;4915377;29;20066;-95
2023/03/21 11:29:27;;;;;;;25.67;13.35;;;;;;;10.78;78.55;100922.06;4926210;29;20040;-89
2023/03/21 11:32:00;;;;;;;26.20;13.00;;;;;;;10.64;78.75;100919.94;4911228;29;20461;-93
2023/03/21 11:34:40;;;;;;;32.95;14.27;;;;;;;10.78;78.53;100909.47;4920546;29;20051;-90
2023/03/21 11:37:18;;;;;;;25.17;13.23;;;;;;;10.77;77.01;100888.97;4924350;29;20088;-90
2023/03/21 11:39:44;;;;;;;28.02;13.27;;;;;;;10.60;77.75;100891.66;4902666;29;20048;-91
2023/03/21 11:42:42;;;;;;;27.20;14.43;;;;;;;10.69;77.93;100905.00;4914736;29;20455;-93
2023/03/21 11:45:57;;;;;;;31.65;13.13;;;;;;;10.62;78.29;100913.88;4941423;29;20034;-90
2023/03/21 11:48:25;;;;;;;37.65;13.98;;;;;;;10.49;79.37;100911.59;4930649;29;20039;-88
2023/03/21 11:51:03;;;;;;;42.35;15.00;;;;;;;10.41;79.75;100893.50;4903229;29;20497;-90
2023/03/21 11:53:59;;;;;;;32.45;14.38;;;;;;;10.56;80.35;100915.34;4926630;29;20070;-88
2023/03/21 11:56:46;;;;;;;29.55;13.75;;;;;;;10.57;78.87;100906.25;4952065;29;20077;-86
2023/03/21 11:59:36;;;;;;;30.75;12.38;;;;;;;10.51;79.36;100912.25;4916496;29;20492;-87
2023/03/21 12:02:47;;;;;;;27.50;12.98;;;;;;;10.77;79.00;100897.03;4936266;29;20488;-89
2023/03/21 12:05:23;;;;;;;31.63;13.00;;;;;;;11.01;77.79;100900.91;4922432;29;20039;-91
2023/03/21 12:08:17;;;;;;;28.00;13.35;;;;;;;10.82;77.29;100903.78;4915035;29;20415;-94
2023/03/21 12:14:41;;;;;;;27.80;13.77;;;;;;;10.83;77.89;100897.41;5079287;23;20064;-93
2023/03/21 12:23:16;;;;;;;30.80;13.27;;;;;;;10.32;80.45;100889.06;4937927;29;20096;-93
2023/03/21 12:26:07;;;;;;;32.28;12.82;;;;;;;10.12;80.83;100853.44;4907893;28;20051;-94
2023/03/21 12:28:41;;;;;;;35.78;13.30;;;;;;;10.19;80.58;100850.97;4847044;29;20074;-93
2023/03/21 12:31:44;;;;;;;31.00;12.35;;;;;;;10.40;80.04;100862.28;4912163;29;20137;-92
2023/03/21 12:34:37;;;;;;;33.40;13.45;;;;;;;10.51;79.42;100878.16;4920724;29;20103;-92
2023/03/21 12:37:40;;;;;;;29.35;11.73;;;;;;;10.31;80.13;100872.09;4934381;29;20192;-89
2023/03/21 12:40:40;;;;;;;34.67;12.80;;;;;;;10.26;80.67;100871.69;4925489;29;20516;-94
2023/03/21 12:43:30;;;;;;;31.38;11.32;;;;;;;10.10;80.97;100866.16;4940728;29;20074;-93
2023/03/21 12:46:30;;;;;;;25.27;11.20;;;;;;;9.77;81.79;100819.34;4922040;29;20110;-91
2023/03/21 12:49:28;;;;;;;34.78;12.00;;;;;;;9.87;82.55;100850.47;4913214;29;20192;-89
2023/03/21 12:52:09;;;;;;;25.70;11.77;;;;;;;9.97;81.67;100836.13;4924825;29;20550;-93
2023/03/21 12:54:51;;;;;;;43.72;13.75;;;;;;;10.08;81.31;100844.81;4935429;29;20054;-91
2023/03/21 12:57:31;;;;;;;33.38;11.75;;;;;;;9.93;81.65;100855.25;4911846;29;20051;-92
2023/03/21 13:00:27;;;;;;;32.53;11.85;;;;;;;9.67;83.29;100847.09;4898309;29;20119;-94
2023/03/21 13:03:17;;;;;;;34.15;12.13;;;;;;;9.38;84.03;100823.06;4914475;29;20061;-92
2023/03/21 13:06:09;;;;;;;34.03;12.90;;;;;;;9.40;84.37;100802.31;4933127;29;20079;-93
2023/03/21 13:11:50;;;;;;;28.52;10.75;;;;;;;9.20;84.30;100806.06;4972925;28;20043;-87
2023/03/21 13:14:36;;;;;;;34.03;12.45;;;;;;;9.35;85.34;100839.47;5065713;23;20123;-89
2023/03/21 13:17:22;;;;;;;35.38;12.52;;;;;;;9.45;85.26;100853.69;4952853;28;20051;-90
2023/03/21 13:20:18;;;;;;;31.23;12.40;;;;;;;9.33;85.47;100843.31;4936245;29;20039;-89
2023/03/21 13:23:03;;;;;;;31.15;12.85;;;;;;;9.28;85.88;100819.59;4930424;29;20440;-89
2023/03/21 13:25:53;;;;;;;35.13;13.63;;;;;;;9.27;85.84;100825.94;4922657;29;20044;-91
2023/03/21 13:28:21;;;;;;;31.92;13.50;;;;;;;9.29;86.51;100806.06;4940874;29;20123;-88
2023/03/21 13:30:48;;;;;;;30.08;14.07;;;;;;;9.17;85.76;100819.78;4921049;29;20126;-93
2023/03/21 13:33:28;;;;;;;32.80;14.95;;;;;;;9.25;86.10;100830.66;4909555;29;20119;-92
2023/03/21 13:36:30;;;;;;;39.53;15.80;;;;;;;9.24;85.76;100820.88;4891822;29;20044;-93
2023/03/21 13:39:09;;;;;;;33.33;15.40;;;;;;;9.28;85.28;100833.03;4903089;29;20503;-93
2023/03/21 13:41:47;;;;;;;38.00;16.88;;;;;;;9.13;85.40;100811.22;4891746;29;20044;-91
2023/03/21 13:47:45;;;;;;;46.17;17.80;;;;;;;9.31;86.09;100824.66;4971096;28;20047;-94
2023/03/21 13:51:14;;;;;;;47.92;23.17;;;;;;;9.14;86.59;100817.41;4958644;29;20174;-94
2023/03/21 13:53:44;;;;;;;36.50;16.92;;;;;;;9.00;86.29;100783.88;4916982;29;20138;-90
2023/03/21 13:56:21;;;;;;;33.22;16.40;;;;;;;9.09;86.44;100797.25;4923906;29;20178;-89
2023/03/21 13:58:52;;;;;;;35.50;18.58;;;;;;;9.08;86.75;100830.44;4931184;29;20040;-90
2023/03/21 14:01:30;;;;;;;36.22;18.35;;;;;;;9.04;86.96;100837.06;4937248;29;20086;-89
2023/03/21 14:04:16;;;;;;;43.30;18.73;;;;;;;8.87;87.68;100811.00;4954517;29;20484;-90
2023/03/21 14:07:02;;;;;;;41.60;17.20;;;;;;;9.03;86.87;100832.69;4919823;29;20408;-89
2023/03/21 14:09:27;;;;;;;;;;;;;;;8.99;87.36;100825.94;4943039;29;20047;-88
2023/03/21 14:11:53;;;;;;;38.58;18.55;;;;;;;8.78;87.25;100785.94;4956843;28;19914;-88
2023/03/21 14:14:25;;;;;;;38.42;17.85;;;;;;;8.62;86.78;100772.31;4941043;29;20434;-88
2023/03/21 14:16:55;;;;;;;35.00;17.75;;;;;;;8.70;87.09;100793.00;4931402;29;20066;-89
2023/03/21 14:19:28;;;;;;;37.05;18.38;;;;;;;8.79;86.84;100806.38;4959342;28;20046;-91
2023/03/21 14:21:55;;;;;;;37.30;18.35;;;;;;;8.69;87.25;100796.69;4933470;29;20114;-90
2023/03/21 14:24:23;;;;;;;45.10;19.90;;;;;;;8.73;87.01;100804.28;4921282;29;20115;-90
2023/03/21 14:26:53;;;;;;;38.13;18.77;;;;;;;8.70;87.29;100803.72;4933452;29;20047;-92
2023/03/21 14:29:26;;;;;;;37.53;19.30;;;;;;;8.65;87.22;100794.28;4931489;29;20404;-89
2023/03/21 14:31:53;;;;;;;43.60;20.30;;;;;;;8.82;87.16;100807.94;4904041;29;20036;-91
2023/03/21 14:34:20;;;;;;;32.58;17.85;;;;;;;8.83;86.08;100794.38;4928215;29;20145;-91
2023/03/21 14:36:48;;;;;;;33.03;18.52;;;;;;;8.93;85.79;100804.22;4950812;29;20039;-91
2023/03/21 14:39:19;;;;;;;30.70;15.70;;;;;;;8.89;86.09;100822.44;4933974;29;20479;-90
2023/03/21 14:41:47;;;;;;;34.35;16.73;;;;;;;8.71;86.51;100794.69;4940193;29;20084;-90
2023/03/21 14:44:24;;;;;;;34.67;17.13;;;;;;;8.61;87.63;100822.34;4925817;29;20058;-88
2023/03/21 14:46:50;;;;;;;36.83;18.08;;;;;;;8.48;88.25;100811.13;4921678;29;20054;-91
2023/03/21 14:49:18;;;;;;;;;;;;;;;8.58;88.48;100822.66;4930434;29;20061;-90
2023/03/21 14:51:45;;;;;;;42.53;18.13;;;;;;;8.36;89.17;100813.09;4958717;29;20050;-90
2023/03/21 14:54:16;;;;;;;40.55;20.70;;;;;;;8.30;89.51;100805.59;4941290;29;20182;-92
2023/03/21 14:56:50;;;;;;;40.78;22.08;;;;;;;8.33;90.08;100793.75;4921530;29;20504;-90
2023/03/21 14:59:19;;;;;;;46.15;22.70;;;;;;;8.30;89.34;100775.31;4914092;29;20036;-90
2023/03/21 15:01:45;;;;;;;48.10;23.92;;;;;;;8.36;89.60;100785.44;4955704;29;20066;-89
2023/03/21 15:04:10;;;;;;;36.60;20.20;;;;;;;8.47;88.77;100817.44;4911212;28;20105;-90
2023/03/21 15:06:54;;;;;;;40.60;20.00;;;;;;;8.23;89.52;100778.53;4918632;28;20500;-88
2023/03/21 15:09:46;;;;;;;38.95;18.52;;;;;;;8.04;89.68;100755.31;4939296;29;20136;-95
2023/03/21 15:12:22;;;;;;;40.88;21.40;;;;;;;8.20;89.69;100781.50;4937066;29;20083;-91
2023/03/21 15:14:51;;;;;;;33.67;20.27;;;;;;;7.86;90.71;100773.06;4923006;29;20043;-93
2023/03/21 15:17:37;;;;;;;34.70;19.55;;;;;;;8.04;90.81;100789.28;4932943;29;20051;-84
2023/03/21 15:20:13;;;;;;;32.63;17.98;;;;;;;8.18;90.39;100812.09;4951891;29;20154;-91
2023/03/21 15:23:10;;;;;;;46.30;22.05;;;;;;;8.23;91.33;100809.84;4923847;29;20047;-93
2023/03/21 15:25:37;;;;;;;46.72;21.95;;;;;;;7.96;91.76;100773.94;4944872;28;20055;-92
2023/03/21 15:28:06;;;;;;;44.70;23.15;;;;;;;8.33;91.68;100796.44;4950072;28;20043;-86
2023/03/21 15:30:33;;;;;;;36.10;19.08;;;;;;;8.22;90.70;100789.41;4924963;29;20144;-88
2023/03/21 15:33:06;;;;;;;45.90;22.15;;;;;;;8.18;90.70;100785.31;4929202;29;20126;-84
2023/03/21 15:36:11;;;;;;;47.80;22.67;;;;;;;8.14;90.96;100781.22;4920646;29;20035;-91
2023/03/21 15:38:39;;;;;;;43.95;21.33;;;;;;;7.99;90.93;100787.03;4962764;28;20036;-90
2023/03/21 15:41:21;;;;;;;41.63;21.60;;;;;;;8.25;91.52;100808.72;4944459;29;20115;-93
2023/03/21 15:44:08;;;;;;;42.50;21.75;;;;;;;8.29;90.13;100800.38;4955420;28;20053;-93
2023/03/21 15:46:47;;;;;;;46.97;23.55;;;;;;;8.30;90.75;100810.13;4937742;29;20051;-88
2023/03/21 15:49:54;;;;;;;41.00;20.60;;;;;;;8.22;90.50;100790.25;4942617;29;20032;-93
2023/03/21 15:52:22;;;;;;;44.47;23.20;;;;;;;8.12;90.97;100784.03;4929012;29;20146;-89
2023/03/21 15:54:54;;;;;;;43.72;22.52;;;;;;;8.25;91.15;100784.59;4930711;29;20050;-92
2023/03/21 15:57:31;;;;;;;47.22;24.83;;;;;;;8.18;90.64;100775.44;4924817;29;20108;-90
2023/03/21 16:00:17;;;;;;;42.15;22.88;;;;;;;8.46;90.40;100810.41;4928427;29;20051;-90
2023/03/21 16:02:42;;;;;;;41.80;20.83;;;;;;;8.22;89.85;100784.06;4935636;29;20083;-89
2023/03/21 16:05:26;;;;;;;34.83;20.52;;;;;;;8.34;89.42;100808.84;4937630;29;20044;-92
2023/03/21 16:07:53;;;;;;;42.28;22.55;;;;;;;8.08;89.43;100773.75;4927059;29;20047;-90
2023/03/21 16:10:28;;;;;;;38.47;21.58;;;;;;;8.16;89.38;100774.75;4929322;29;20123;-92
2023/03/21 16:12:54;;;;;;;35.85;19.92;;;;;;;8.19;88.78;100785.19;4929378;29;20103;-90
2023/03/21 16:15:21;;;;;;;47.90;23.40;;;;;;;8.07;89.35;100774.75;4929665;29;20091;-91
2023/03/21 16:17:54;;;;;;;49.95;26.13;;;;;;;8.18;89.58;100783.47;4932581;29;20043;-91
2023/03/21 16:20:27;;;;;;;41.13;20.70;;;;;;;8.40;88.98;100808.31;4924655;29;20063;-89
2023/03/21 16:23:37;;;;;;;36.83;20.52;;;;;;;8.39;88.23;100812.78;4938228;29;20119;-92
2023/03/21 16:36:55;;;;;;;35.78;19.20;;;;;;;8.37;86.81;100801.38;5164665;23;20110;-92
2023/03/21 16:44:51;;;;;;;30.52;17.25;;;;;;;8.40;86.32;100819.84;4958946;28;20130;-91
2023/03/21 16:47:38;;;;;;;32.65;16.73;;;;;;;8.50;86.82;100846.66;4911437;28;20047;-92
2023/03/21 16:52:58;;;;;;;30.98;18.85;;;;;;;8.54;87.19;100840.00;4928882;29;20047;-92
2023/03/21 16:55:36;;;;;;;38.88;19.58;;;;;;;8.32;87.30;100800.13;4930076;29;20051;-93
2023/03/21 16:58:05;;;;;;;37.10;19.65;;;;;;;8.20;87.52;100786.88;4936631;29;20043;-93
2023/03/21 17:04:06;;;;;;;39.13;19.45;;;;;;;8.58;87.30;100833.38;4947032;29;20054;-89
2023/03/21 17:07:00;;;;;;;34.75;19.35;;;;;;;8.58;86.63;100833.38;4988484;23;20079;-90
2023/03/21 17:09:28;;;;;;;35.00;20.17;;;;;;;8.57;87.18;100842.41;4972730;28;20102;-87
2023/03/21 17:11:54;;;;;;;38.63;20.00;;;;;;;8.51;86.86;100832.25;4952999;28;20558;-89
2023/03/21 17:14:36;;;;;;;33.92;19.17;;;;;;;8.39;86.63;100814.63;5241865;23;20044;-90
2023/03/21 17:17:03;;;;;;;38.65;19.38;;;;;;;8.41;86.91;100826.09;4900884;29;20060;-90
2023/03/21 17:22:04;;;;;;;35.97;20.05;;;;;;;8.23;87.50;100797.28;5055096;23;20094;-90
2023/03/21 17:24:35;;;;;;;40.85;21.42;;;;;;;8.22;87.32;100784.91;4934265;29;20098;-94
2023/03/21 17:27:29;;;;;;;36.97;20.50;;;;;;;8.31;87.53;100798.41;4992962;23;20055;-94
2023/03/21 17:30:23;;;;;;;32.90;17.45;;;;;;;8.17;89.33;100795.19;4914146;29;20490;-92
2023/03/21 17:32:57;;;;;;;34.60;20.10;;;;;;;7.89;90.22;100758.53;4910059;29;20036;-92
2023/03/21 17:35:25;;;;;;;37.67;21.65;;;;;;;7.71;91.17;100740.53;4904617;29;20045;-92
2023/03/21 17:38:13;;;;;;;41.58;21.63;;;;;;;7.73;91.78;100751.94;4910659;29;20154;-92
2023/03/21 17:40:48;;;;;;;37.65;21.25;;;;;;;7.69;92.89;100753.19;4911139;29;20037;-94
2023/03/21 17:43:19;;;;;;;48.30;24.73;;;;;;;7.87;92.65;100773.94;4914290;29;20074;-91
2023/03/21 17:45:45;;;;;;;40.80;21.08;;;;;;;7.79;92.81;100775.44;4914723;29;20044;-92
2023/03/21 17:48:17;;;;;;;37.47;19.85;;;;;;;7.55;93.11;100740.22;4961661;23;20067;-96
2023/03/21 17:50:52;;;;;;;38.60;19.42;;;;;;;7.62;93.31;100773.47;4932438;29;20203;-94
2023/03/21 18:04:39;;;;;;;39.00;17.88;;;;;;;7.56;94.57;100798.09;4923199;29;20058;-94
2023/03/21 18:07:17;;;;;;;35.65;17.98;;;;;;;7.48;94.65;100811.34;4903537;29;20056;-92
2023/03/21 18:09:43;;;;;;;45.53;19.52;;;;;;;7.19;95.51;100770.16;4899899;29;20033;-91
2023/03/21 18:12:10;;;;;;;38.05;18.13;;;;;;;7.39;95.17;100792.44;4892152;29;20055;-95
2023/03/21 18:14:39;;;;;;;38.60;18.00;;;;;;;7.37;95.21;100789.06;4925976;28;20572;-91
2023/03/21 18:19:54;;;;;;;29.92;15.27;;;;;;;7.48;94.86;100824.72;4945292;29;20055;-91
2023/03/21 18:23:12;;;;;;;32.80;15.15;;;;;;;7.64;94.78;100837.56;4991680;23;20528;-93
2023/03/21 18:26:12;;;;;;;27.85;13.30;;;;;;;7.40;94.09;100801.31;4968878;28;20147;-94
2023/03/21 18:28:40;;;;;;;24.65;13.43;;;;;;;7.63;93.83;100831.34;4915473;29;20050;-92
2023/03/21 18:31:17;;;;;;;32.67;14.15;;;;;;;7.57;93.76;100815.84;4951679;29;20042;-90
2023/03/21 18:37:45;;;;;;;25.77;13.77;;;;;;;7.79;94.18;100836.16;4958392;28;20523;-91
2023/03/21 18:40:23;;;;;;;31.30;14.75;;;;;;;7.85;94.18;100832.94;4958421;28;20448;-89
2023/03/21 18:46:14;;;;;;;29.25;14.43;;;;;;;7.51;93.44;100790.47;4983552;28;20054;-91
2023/03/21 18:49:03;;;;;;;27.65;14.85;;;;;;;7.71;93.57;100799.41;4999813;23;20051;-93
2023/03/21 18:53:58;;;;;;;28.90;15.48;;;;;;;7.76;93.47;100789.13;4958853;28;20055;-87
2023/03/21 18:56:25;;;;;;;29.58;15.50;;;;;;;7.91;93.16;100786.03;4945894;29;20055;-85
2023/03/21 18:58:53;;;;;;;30.02;14.93;;;;;;;7.93;92.29;100805.47;4948649;29;20115;-91
2023/03/21 19:01:19;;;;;;;25.67;15.05;;;;;;;7.88;92.61;100780.97;4965401;29;20074;-90
2023/03/21 19:03:45;;;;;;;30.50;16.33;;;;;;;7.79;92.36;100778.13;4959523;29;20046;-89
2023/03/21 19:06:30;;;;;;;28.05;13.90;;;;;;;7.87;91.97;100781.97;4926162;28;20065;-92
2023/03/21 19:08:56;;;;;;;25.23;12.68;;;;;;;7.92;91.15;100788.56;4950090;29;20047;-88
2023/03/21 19:11:43;;;;;;;26.67;13.63;;;;;;;8.00;91.92;100795.88;4943728;29;20051;-90
2023/03/21 19:14:15;;;;;;;30.83;14.57;;;;;;;7.69;92.47;100773.75;4953994;29;20050;-89
2023/03/21 19:16:44;;;;;;;24.40;13.32;;;;;;;7.83;92.58;100784.06;4937230;29;20074;-91
2023/03/21 19:19:20;;;;;;;26.98;13.45;;;;;;;7.85;92.66;100808.84;4920627;29;20583;-93
2023/03/21 19:25:25;;;;;;;26.90;12.73;;;;;;;8.09;91.48;100816.47;5044657;23;20055;-93
2023/03/21 19:28:16;;;;;;;20.90;12.30;;;;;;;7.78;91.81;100771.09;5073866;23;20025;-88
2023/03/21 19:33:18;;;;;;;20.70;12.27;;;;;;;7.90;91.80;100784.34;5028816;23;20134;-92
2023/03/21 19:38:36;;;;;;;24.42;11.20;;;;;;;7.98;91.55;100773.75;5136048;23;20128;-90
2023/03/21 19:43:54;;;;;;;19.05;11.25;;;;;;;8.02;91.24;100764.47;5083470;23;20114;-92
2023/03/21 19:46:30;;;;;;;22.35;11.40;;;;;;;8.03;91.73;100791.13;4946814;29;20122;-91
2023/03/21 19:49:20;;;;;;;19.77;11.15;;;;;;;8.02;92.02;100786.72;4914030;29;20067;-93
2023/03/21 19:51:46;;;;;;;21.23;11.07;;;;;;;7.85;92.16;100741.94;4950711;29;20077;-91
2023/03/21 19:54:13;;;;;;;22.50;11.35;;;;;;;7.92;91.62;100745.75;4909088;29;21650;-91
2023/03/21 20:00:10;;;;;;;19.02;10.40;;;;;;;7.91;91.19;100737.84;5074917;23;20050;-89
2023/03/21 20:02:43;;;;;;;28.30;11.32;;;;;;;8.06;91.50;100768.56;4971211;28;20039;-90
2023/03/21 20:05:11;;;;;;;18.67;10.40;;;;;;;7.78;91.72;100744.31;4972521;28;20105;-92
2023/03/21 20:07:40;;;;;;;22.13;11.25;;;;;;;7.86;92.69;100764.19;4963845;28;20094;-92
2023/03/21 20:10:10;;;;;;;27.40;11.40;;;;;;;7.88;92.36;100770.25;4958719;28;20060;-92